sensor_id;sensor_type;location;lat;lon;timestamp;temperature;humidity
32600;DHT22;19277;51.778;7.912;2023-08-08T00:01:26;21.10;81.60
32600;DHT22;19277;51.778;7.912;2023-08-08T00:03:51;21.20;81.70
32600;DHT22;19277;51.778;7.912;2023-08-08T00:06:17;21.20;81.80
32600;DHT22;19277;51.778;7.912;2023-08-08T00:08:43;21.20;81.90
32600;DHT22;19277;51.778;7.912;2023-08-08T00:11:08;21.20;82.10
32600;DHT22;19277;51.778;7.912;2023-08-08T00:13:34;21.20;82.10
32600;DHT22;19277;51.778;7.912;2023-08-08T00:15:59;21.20;82.30
32600;DHT22;19277;51.778;7.912;2023-08-08T00:18:25;21.20;82.50
32600;DHT22;19277;51.778;7.912;2023-08-08T00:20:51;21.20;82.50
32600;DHT22;19277;51.778;7.912;2023-08-08T00:23:16;21.20;82.80
32600;DHT22;19277;51.778;7.912;2023-08-08T00:25:42;21.20;82.80
32600;DHT22;19277;51.778;7.912;2023-08-08T00:28:07;21.20;82.90
32600;DHT22;19277;51.778;7.912;2023-08-08T00:30:33;21.20;83.10
32600;DHT22;19277;51.778;7.912;2023-08-08T00:32:59;21.20;83.20
32600;DHT22;19277;51.778;7.912;2023-08-08T00:35:24;21.20;83.30
32600;DHT22;19277;51.778;7.912;2023-08-08T00:37:50;21.20;83.30
32600;DHT22;19277;51.778;7.912;2023-08-08T00:40:16;21.20;83.40
32600;DHT22;19277;51.778;7.912;2023-08-08T00:42:41;21.20;83.50
32600;DHT22;19277;51.778;7.912;2023-08-08T00:45:07;21.20;83.50
32600;DHT22;19277;51.778;7.912;2023-08-08T00:47:34;21.20;83.50
32600;DHT22;19277;51.778;7.912;2023-08-08T00:50:02;21.30;83.60
32600;DHT22;19277;51.778;7.912;2023-08-08T00:52:28;21.30;83.60
32600;DHT22;19277;51.778;7.912;2023-08-08T00:54:54;21.30;83.60
32600;DHT22;19277;51.778;7.912;2023-08-08T00:57:20;21.30;83.70
32600;DHT22;19277;51.778;7.912;2023-08-08T00:59:46;21.30;83.70
32600;DHT22;19277;51.778;7.912;2023-08-08T01:02:12;21.30;83.70
32600;DHT22;19277;51.778;7.912;2023-08-08T01:04:38;21.30;83.70
32600;DHT22;19277;51.778;7.912;2023-08-08T01:07:20;21.30;83.80
32600;DHT22;19277;51.778;7.912;2023-08-08T01:10:01;21.30;83.80
32600;DHT22;19277;51.778;7.912;2023-08-08T01:12:34;21.30;83.90
32600;DHT22;19277;51.778;7.912;2023-08-08T01:15:01;21.30;84.00
32600;DHT22;19277;51.778;7.912;2023-08-08T01:17:27;21.30;84.00
32600;DHT22;19277;51.778;7.912;2023-08-08T01:19:52;21.30;84.10
32600;DHT22;19277;51.778;7.912;2023-08-08T01:22:36;21.30;84.00
32600;DHT22;19277;51.778;7.912;2023-08-08T01:25:04;21.30;84.00
32600;DHT22;19277;51.778;7.912;2023-08-08T01:27:30;21.30;84.00
32600;DHT22;19277;51.778;7.912;2023-08-08T01:29:56;21.40;84.00
32600;DHT22;19277;51.778;7.912;2023-08-08T01:32:21;21.40;84.10
32600;DHT22;19277;51.778;7.912;2023-08-08T01:34:47;21.40;84.10
32600;DHT22;19277;51.778;7.912;2023-08-08T01:37:49;21.40;84.20
32600;DHT22;19277;51.778;7.912;2023-08-08T01:40:16;21.40;84.30
32600;DHT22;19277;51.778;7.912;2023-08-08T01:42:47;21.40;84.40
32600;DHT22;19277;51.778;7.912;2023-08-08T01:45:15;21.40;84.40
32600;DHT22;19277;51.778;7.912;2023-08-08T01:47:40;21.40;84.30
32600;DHT22;19277;51.778;7.912;2023-08-08T01:50:07;21.40;84.40
32600;DHT22;19277;51.778;7.912;2023-08-08T01:52:34;21.40;84.50
32600;DHT22;19277;51.778;7.912;2023-08-08T01:55:00;21.40;84.50
32600;DHT22;19277;51.778;7.912;2023-08-08T01:57:25;21.40;84.60
32600;DHT22;19277;51.778;7.912;2023-08-08T01:59:51;21.40;84.50
32600;DHT22;19277;51.778;7.912;2023-08-08T02:02:17;21.50;84.60
32600;DHT22;19277;51.778;7.912;2023-08-08T02:04:43;21.40;84.60
32600;DHT22;19277;51.778;7.912;2023-08-08T02:07:08;21.40;84.60
32600;DHT22;19277;51.778;7.912;2023-08-08T02:09:34;21.50;84.70
32600;DHT22;19277;51.778;7.912;2023-08-08T02:12:00;21.50;84.70
32600;DHT22;19277;51.778;7.912;2023-08-08T02:14:25;21.50;84.60
32600;DHT22;19277;51.778;7.912;2023-08-08T02:16:51;21.50;84.70
32600;DHT22;19277;51.778;7.912;2023-08-08T02:19:16;21.50;84.70
32600;DHT22;19277;51.778;7.912;2023-08-08T02:21:42;21.50;84.70
32600;DHT22;19277;51.778;7.912;2023-08-08T02:24:08;21.50;84.80
32600;DHT22;19277;51.778;7.912;2023-08-08T02:26:33;21.50;85.00
32600;DHT22;19277;51.778;7.912;2023-08-08T02:28:59;21.50;85.10
32600;DHT22;19277;51.778;7.912;2023-08-08T02:31:24;21.50;85.00
32600;DHT22;19277;51.778;7.912;2023-08-08T02:33:50;21.50;85.10
32600;DHT22;19277;51.778;7.912;2023-08-08T02:36:17;21.50;85.10
32600;DHT22;19277;51.778;7.912;2023-08-08T02:38:43;21.50;85.30
32600;DHT22;19277;51.778;7.912;2023-08-08T02:41:09;21.50;85.30
32600;DHT22;19277;51.778;7.912;2023-08-08T02:43:35;21.50;85.50
32600;DHT22;19277;51.778;7.912;2023-08-08T02:46:00;21.50;85.50
32600;DHT22;19277;51.778;7.912;2023-08-08T02:48:28;21.50;85.60
32600;DHT22;19277;51.778;7.912;2023-08-08T02:50:54;21.50;85.70
32600;DHT22;19277;51.778;7.912;2023-08-08T02:53:19;21.50;85.90
32600;DHT22;19277;51.778;7.912;2023-08-08T02:55:45;21.50;86.00
32600;DHT22;19277;51.778;7.912;2023-08-08T02:58:10;21.50;86.20
32600;DHT22;19277;51.778;7.912;2023-08-08T03:00:36;21.50;86.30
32600;DHT22;19277;51.778;7.912;2023-08-08T03:03:01;21.50;86.40
32600;DHT22;19277;51.778;7.912;2023-08-08T03:05:28;21.50;86.50
32600;DHT22;19277;51.778;7.912;2023-08-08T03:07:53;21.60;86.90
32600;DHT22;19277;51.778;7.912;2023-08-08T03:10:19;21.60;87.00
32600;DHT22;19277;51.778;7.912;2023-08-08T03:12:45;21.60;87.10
32600;DHT22;19277;51.778;7.912;2023-08-08T03:15:10;21.60;87.40
32600;DHT22;19277;51.778;7.912;2023-08-08T03:17:36;21.60;87.60
32600;DHT22;19277;51.778;7.912;2023-08-08T03:20:02;21.60;87.70
32600;DHT22;19277;51.778;7.912;2023-08-08T03:22:29;21.60;87.70
32600;DHT22;19277;51.778;7.912;2023-08-08T03:24:54;21.60;87.90
32600;DHT22;19277;51.778;7.912;2023-08-08T03:27:20;21.60;88.10
32600;DHT22;19277;51.778;7.912;2023-08-08T03:29:45;21.60;88.30
32600;DHT22;19277;51.778;7.912;2023-08-08T03:32:11;21.60;88.50
32600;DHT22;19277;51.778;7.912;2023-08-08T03:34:36;21.60;88.60
32600;DHT22;19277;51.778;7.912;2023-08-08T03:37:02;21.60;88.80
32600;DHT22;19277;51.778;7.912;2023-08-08T03:39:27;21.60;88.90
32600;DHT22;19277;51.778;7.912;2023-08-08T03:41:53;21.60;89.10
32600;DHT22;19277;51.778;7.912;2023-08-08T03:44:19;21.60;89.20
32600;DHT22;19277;51.778;7.912;2023-08-08T03:46:44;21.60;89.30
32600;DHT22;19277;51.778;7.912;2023-08-08T03:49:10;21.60;89.50
32600;DHT22;19277;51.778;7.912;2023-08-08T03:51:35;21.60;89.60
32600;DHT22;19277;51.778;7.912;2023-08-08T03:54:01;21.60;89.80
32600;DHT22;19277;51.778;7.912;2023-08-08T03:56:26;21.60;89.90
32600;DHT22;19277;51.778;7.912;2023-08-08T03:58:52;21.60;89.30
32600;DHT22;19277;51.778;7.912;2023-08-08T04:01:18;21.70;89.50
32600;DHT22;19277;51.778;7.912;2023-08-08T04:03:44;21.70;89.40
32600;DHT22;19277;51.778;7.912;2023-08-08T04:06:09;21.70;89.30
32600;DHT22;19277;51.778;7.912;2023-08-08T04:08:35;21.70;89.10
32600;DHT22;19277;51.778;7.912;2023-08-08T04:11:00;21.70;89.10
32600;DHT22;19277;51.778;7.912;2023-08-08T04:13:26;21.70;89.00
32600;DHT22;19277;51.778;7.912;2023-08-08T04:15:51;21.70;88.90
32600;DHT22;19277;51.778;7.912;2023-08-08T04:18:17;21.70;88.80
32600;DHT22;19277;51.778;7.912;2023-08-08T04:20:45;21.70;88.80
32600;DHT22;19277;51.778;7.912;2023-08-08T04:23:12;21.70;88.80
32600;DHT22;19277;51.778;7.912;2023-08-08T04:25:38;21.70;88.70
32600;DHT22;19277;51.778;7.912;2023-08-08T04:28:04;21.70;88.60
32600;DHT22;19277;51.778;7.912;2023-08-08T04:30:29;21.80;88.60
32600;DHT22;19277;51.778;7.912;2023-08-08T04:32:55;21.80;88.50
32600;DHT22;19277;51.778;7.912;2023-08-08T04:35:20;21.80;88.80
32600;DHT22;19277;51.778;7.912;2023-08-08T04:37:46;21.70;89.00
32600;DHT22;19277;51.778;7.912;2023-08-08T04:40:12;21.80;88.90
32600;DHT22;19277;51.778;7.912;2023-08-08T04:42:37;21.80;89.00
32600;DHT22;19277;51.778;7.912;2023-08-08T04:45:04;21.80;89.00
32600;DHT22;19277;51.778;7.912;2023-08-08T04:47:29;21.80;89.30
32600;DHT22;19277;51.778;7.912;2023-08-08T04:49:55;21.80;89.40
32600;DHT22;19277;51.778;7.912;2023-08-08T04:52:20;21.80;89.30
32600;DHT22;19277;51.778;7.912;2023-08-08T04:54:46;21.80;89.30
32600;DHT22;19277;51.778;7.912;2023-08-08T04:57:12;21.80;89.20
32600;DHT22;19277;51.778;7.912;2023-08-08T04:59:37;21.80;89.20
32600;DHT22;19277;51.778;7.912;2023-08-08T05:02:03;21.80;89.10
32600;DHT22;19277;51.778;7.912;2023-08-08T05:04:30;21.80;89.00
32600;DHT22;19277;51.778;7.912;2023-08-08T05:06:56;21.90;89.30
32600;DHT22;19277;51.778;7.912;2023-08-08T05:09:23;21.80;89.40
32600;DHT22;19277;51.778;7.912;2023-08-08T05:11:52;21.80;89.50
32600;DHT22;19277;51.778;7.912;2023-08-08T05:14:18;21.80;89.40
32600;DHT22;19277;51.778;7.912;2023-08-08T05:16:43;21.80;89.30
32600;DHT22;19277;51.778;7.912;2023-08-08T05:19:09;21.80;89.10
32600;DHT22;19277;51.778;7.912;2023-08-08T05:21:34;21.80;89.20
32600;DHT22;19277;51.778;7.912;2023-08-08T05:24:00;21.90;89.50
32600;DHT22;19277;51.778;7.912;2023-08-08T05:26:26;21.90;89.70
32600;DHT22;19277;51.778;7.912;2023-08-08T05:28:51;21.80;89.60
32600;DHT22;19277;51.778;7.912;2023-08-08T05:31:17;21.80;89.80
32600;DHT22;19277;51.778;7.912;2023-08-08T05:33:42;21.90;89.90
32600;DHT22;19277;51.778;7.912;2023-08-08T05:36:08;21.90;90.00
32600;DHT22;19277;51.778;7.912;2023-08-08T05:38:33;21.90;90.10
32600;DHT22;19277;51.778;7.912;2023-08-08T05:40:59;21.90;90.20
32600;DHT22;19277;51.778;7.912;2023-08-08T05:43:24;21.90;90.20
32600;DHT22;19277;51.778;7.912;2023-08-08T05:45:50;21.90;90.20
32600;DHT22;19277;51.778;7.912;2023-08-08T05:48:16;21.90;90.30
32600;DHT22;19277;51.778;7.912;2023-08-08T05:50:41;21.90;90.20
32600;DHT22;19277;51.778;7.912;2023-08-08T05:53:07;21.90;90.20
32600;DHT22;19277;51.778;7.912;2023-08-08T05:55:33;21.90;90.30
32600;DHT22;19277;51.778;7.912;2023-08-08T05:57:58;21.90;90.10
32600;DHT22;19277;51.778;7.912;2023-08-08T06:00:24;21.90;90.20
32600;DHT22;19277;51.778;7.912;2023-08-08T06:02:50;21.90;90.20
32600;DHT22;19277;51.778;7.912;2023-08-08T06:05:22;21.90;90.40
32600;DHT22;19277;51.778;7.912;2023-08-08T06:07:48;21.90;90.10
32600;DHT22;19277;51.778;7.912;2023-08-08T06:10:13;22.00;90.10
32600;DHT22;19277;51.778;7.912;2023-08-08T06:12:39;21.90;90.00
32600;DHT22;19277;51.778;7.912;2023-08-08T06:15:05;22.00;90.00
32600;DHT22;19277;51.778;7.912;2023-08-08T06:17:31;22.00;89.90
32600;DHT22;19277;51.778;7.912;2023-08-08T06:19:56;22.00;89.80
32600;DHT22;19277;51.778;7.912;2023-08-08T06:22:23;22.00;89.80
32600;DHT22;19277;51.778;7.912;2023-08-08T06:24:48;22.00;89.60
32600;DHT22;19277;51.778;7.912;2023-08-08T06:27:14;22.00;89.50
32600;DHT22;19277;51.778;7.912;2023-08-08T06:29:39;22.10;89.50
32600;DHT22;19277;51.778;7.912;2023-08-08T06:32:05;22.10;89.40
32600;DHT22;19277;51.778;7.912;2023-08-08T06:34:31;21.60;86.50
32600;DHT22;19277;51.778;7.912;2023-08-08T06:36:56;20.50;88.20
32600;DHT22;19277;51.778;7.912;2023-08-08T06:39:22;19.70;90.80
32600;DHT22;19277;51.778;7.912;2023-08-08T06:41:48;19.10;91.70
32600;DHT22;19277;51.778;7.912;2023-08-08T06:44:13;18.60;92.20
32600;DHT22;19277;51.778;7.912;2023-08-08T06:46:39;18.40;93.10
32600;DHT22;19277;51.778;7.912;2023-08-08T06:49:04;18.30;93.40
32600;DHT22;19277;51.778;7.912;2023-08-08T06:51:32;18.20;93.70
32600;DHT22;19277;51.778;7.912;2023-08-08T06:53:58;18.00;94.20
32600;DHT22;19277;51.778;7.912;2023-08-08T06:56:23;18.10;94.40
32600;DHT22;19277;51.778;7.912;2023-08-08T06:58:51;18.00;94.60
32600;DHT22;19277;51.778;7.912;2023-08-08T07:01:17;17.90;94.80
32600;DHT22;19277;51.778;7.912;2023-08-08T07:03:42;17.90;95.10
32600;DHT22;19277;51.778;7.912;2023-08-08T07:06:09;17.70;95.70
32600;DHT22;19277;51.778;7.912;2023-08-08T07:08:35;17.70;96.30
32600;DHT22;19277;51.778;7.912;2023-08-08T07:11:01;17.80;96.60
32600;DHT22;19277;51.778;7.912;2023-08-08T07:13:26;18.00;96.20
32600;DHT22;19277;51.778;7.912;2023-08-08T07:15:52;18.20;95.90
32600;DHT22;19277;51.778;7.912;2023-08-08T07:18:17;18.10;95.90
32600;DHT22;19277;51.778;7.912;2023-08-08T07:20:43;18.00;96.40
32600;DHT22;19277;51.778;7.912;2023-08-08T07:23:09;18.00;96.30
32600;DHT22;19277;51.778;7.912;2023-08-08T07:25:34;18.00;96.40
32600;DHT22;19277;51.778;7.912;2023-08-08T07:28:00;17.90;96.80
32600;DHT22;19277;51.778;7.912;2023-08-08T07:30:26;17.90;96.90
32600;DHT22;19277;51.778;7.912;2023-08-08T07:32:51;18.00;96.70
32600;DHT22;19277;51.778;7.912;2023-08-08T07:35:17;18.10;96.40
32600;DHT22;19277;51.778;7.912;2023-08-08T07:37:43;18.20;96.20
32600;DHT22;19277;51.778;7.912;2023-08-08T07:40:19;18.30;96.00
32600;DHT22;19277;51.778;7.912;2023-08-08T07:42:46;18.20;96.10
32600;DHT22;19277;51.778;7.912;2023-08-08T07:45:12;18.10;96.60
32600;DHT22;19277;51.778;7.912;2023-08-08T07:47:37;18.10;96.70
32600;DHT22;19277;51.778;7.912;2023-08-08T07:50:03;18.10;96.60
32600;DHT22;19277;51.778;7.912;2023-08-08T07:52:29;18.10;96.60
32600;DHT22;19277;51.778;7.912;2023-08-08T07:54:55;18.10;96.80
32600;DHT22;19277;51.778;7.912;2023-08-08T07:57:20;18.10;96.60
32600;DHT22;19277;51.778;7.912;2023-08-08T07:59:46;18.20;96.50
32600;DHT22;19277;51.778;7.912;2023-08-08T08:02:11;18.10;96.60
32600;DHT22;19277;51.778;7.912;2023-08-08T08:04:37;18.10;96.70
32600;DHT22;19277;51.778;7.912;2023-08-08T08:07:02;18.20;96.30
32600;DHT22;19277;51.778;7.912;2023-08-08T08:09:29;18.20;96.40
32600;DHT22;19277;51.778;7.912;2023-08-08T08:11:54;18.30;96.10
32600;DHT22;19277;51.778;7.912;2023-08-08T08:14:21;18.40;96.40
32600;DHT22;19277;51.778;7.912;2023-08-08T08:16:47;18.70;96.30
32600;DHT22;19277;51.778;7.912;2023-08-08T08:19:12;19.00;95.60
32600;DHT22;19277;51.778;7.912;2023-08-08T08:21:38;19.30;95.00
32600;DHT22;19277;51.778;7.912;2023-08-08T08:24:04;19.60;94.30
32600;DHT22;19277;51.778;7.912;2023-08-08T08:26:29;19.90;93.80
32600;DHT22;19277;51.778;7.912;2023-08-08T08:28:55;20.20;93.40
32600;DHT22;19277;51.778;7.912;2023-08-08T08:31:20;20.40;92.80
32600;DHT22;19277;51.778;7.912;2023-08-08T08:33:46;20.60;92.40
32600;DHT22;19277;51.778;7.912;2023-08-08T08:36:12;20.70;92.10
32600;DHT22;19277;51.778;7.912;2023-08-08T08:38:38;20.90;91.50
32600;DHT22;19277;51.778;7.912;2023-08-08T08:41:03;21.00;91.20
32600;DHT22;19277;51.778;7.912;2023-08-08T08:43:30;21.10;91.00
32600;DHT22;19277;51.778;7.912;2023-08-08T08:46:00;21.20;90.80
32600;DHT22;19277;51.778;7.912;2023-08-08T08:48:25;21.20;90.50
32600;DHT22;19277;51.778;7.912;2023-08-08T08:50:51;21.30;90.40
32600;DHT22;19277;51.778;7.912;2023-08-08T08:53:17;21.40;90.40
32600;DHT22;19277;51.778;7.912;2023-08-08T08:55:43;21.50;90.20
32600;DHT22;19277;51.778;7.912;2023-08-08T08:58:10;21.50;89.70
32600;DHT22;19277;51.778;7.912;2023-08-08T09:00:36;21.50;89.30
32600;DHT22;19277;51.778;7.912;2023-08-08T09:03:02;21.50;89.10
32600;DHT22;19277;51.778;7.912;2023-08-08T09:05:29;21.60;88.40
32600;DHT22;19277;51.778;7.912;2023-08-08T09:07:55;21.60;87.60
32600;DHT22;19277;51.778;7.912;2023-08-08T09:10:20;21.70;87.70
32600;DHT22;19277;51.778;7.912;2023-08-08T09:12:47;21.70;87.00
32600;DHT22;19277;51.778;7.912;2023-08-08T09:15:12;21.70;86.70
32600;DHT22;19277;51.778;7.912;2023-08-08T09:17:43;21.70;86.50
32600;DHT22;19277;51.778;7.912;2023-08-08T09:20:09;21.80;86.30
32600;DHT22;19277;51.778;7.912;2023-08-08T09:22:38;21.80;85.50
32600;DHT22;19277;51.778;7.912;2023-08-08T09:25:05;21.90;85.50
32600;DHT22;19277;51.778;7.912;2023-08-08T09:27:31;21.90;85.00
32600;DHT22;19277;51.778;7.912;2023-08-08T09:29:56;21.90;85.10
32600;DHT22;19277;51.778;7.912;2023-08-08T09:32:22;21.90;84.20
32600;DHT22;19277;51.778;7.912;2023-08-08T09:34:47;21.90;83.80
32600;DHT22;19277;51.778;7.912;2023-08-08T09:37:13;21.90;84.00
32600;DHT22;19277;51.778;7.912;2023-08-08T09:39:39;22.00;83.40
32600;DHT22;19277;51.778;7.912;2023-08-08T09:42:07;22.00;84.00
32600;DHT22;19277;51.778;7.912;2023-08-08T09:44:33;22.00;84.20
32600;DHT22;19277;51.778;7.912;2023-08-08T09:47:00;22.00;84.40
32600;DHT22;19277;51.778;7.912;2023-08-08T09:49:27;22.00;83.90
32600;DHT22;19277;51.778;7.912;2023-08-08T09:51:54;22.10;84.40
32600;DHT22;19277;51.778;7.912;2023-08-08T09:54:20;22.10;83.30
32600;DHT22;19277;51.778;7.912;2023-08-08T09:56:48;22.10;84.40
32600;DHT22;19277;51.778;7.912;2023-08-08T09:59:14;22.10;83.30
32600;DHT22;19277;51.778;7.912;2023-08-08T10:01:43;22.20;83.60
32600;DHT22;19277;51.778;7.912;2023-08-08T10:04:11;22.20;82.50
32600;DHT22;19277;51.778;7.912;2023-08-08T10:06:37;22.20;82.40
32600;DHT22;19277;51.778;7.912;2023-08-08T10:09:03;22.20;82.40
32600;DHT22;19277;51.778;7.912;2023-08-08T10:11:30;22.10;82.30
32600;DHT22;19277;51.778;7.912;2023-08-08T10:13:57;22.10;82.00
32600;DHT22;19277;51.778;7.912;2023-08-08T10:16:23;22.10;81.40
32600;DHT22;19277;51.778;7.912;2023-08-08T10:18:58;22.20;81.40
32600;DHT22;19277;51.778;7.912;2023-08-08T10:21:24;22.20;80.50
32600;DHT22;19277;51.778;7.912;2023-08-08T10:24:02;22.10;81.40
32600;DHT22;19277;51.778;7.912;2023-08-08T10:26:28;22.10;80.70
32600;DHT22;19277;51.778;7.912;2023-08-08T10:28:56;22.10;81.80
32600;DHT22;19277;51.778;7.912;2023-08-08T10:31:22;22.10;80.90
32600;DHT22;19277;51.778;7.912;2023-08-08T10:33:47;22.20;80.80
32600;DHT22;19277;51.778;7.912;2023-08-08T10:36:13;22.20;81.10
32600;DHT22;19277;51.778;7.912;2023-08-08T10:38:50;22.10;81.60
32600;DHT22;19277;51.778;7.912;2023-08-08T10:41:19;22.20;80.50
32600;DHT22;19277;51.778;7.912;2023-08-08T10:43:50;22.20;80.60
32600;DHT22;19277;51.778;7.912;2023-08-08T10:46:24;22.20;80.60
32600;DHT22;19277;51.778;7.912;2023-08-08T10:48:51;22.20;79.90
32600;DHT22;19277;51.778;7.912;2023-08-08T10:51:17;22.20;79.70
32600;DHT22;19277;51.778;7.912;2023-08-08T10:53:43;22.20;80.30
32600;DHT22;19277;51.778;7.912;2023-08-08T10:56:13;22.20;81.00
32600;DHT22;19277;51.778;7.912;2023-08-08T10:58:41;22.30;80.80
32600;DHT22;19277;51.778;7.912;2023-08-08T11:01:07;22.30;79.10
32600;DHT22;19277;51.778;7.912;2023-08-08T11:03:40;22.30;80.80
32600;DHT22;19277;51.778;7.912;2023-08-08T11:06:07;22.30;80.30
32600;DHT22;19277;51.778;7.912;2023-08-08T11:08:33;22.30;80.50
32600;DHT22;19277;51.778;7.912;2023-08-08T11:11:00;22.40;80.60
32600;DHT22;19277;51.778;7.912;2023-08-08T11:13:26;22.40;80.20
32600;DHT22;19277;51.778;7.912;2023-08-08T11:15:52;22.40;79.50
32600;DHT22;19277;51.778;7.912;2023-08-08T11:18:17;22.40;79.10
32600;DHT22;19277;51.778;7.912;2023-08-08T11:20:44;22.50;78.30
32600;DHT22;19277;51.778;7.912;2023-08-08T11:23:09;22.50;79.30
32600;DHT22;19277;51.778;7.912;2023-08-08T11:25:36;22.40;79.10
32600;DHT22;19277;51.778;7.912;2023-08-08T11:28:03;22.50;79.40
32600;DHT22;19277;51.778;7.912;2023-08-08T11:30:30;22.50;76.50
32600;DHT22;19277;51.778;7.912;2023-08-08T11:32:58;22.50;78.80
32600;DHT22;19277;51.778;7.912;2023-08-08T11:35:25;22.50;78.00
32600;DHT22;19277;51.778;7.912;2023-08-08T11:37:56;22.50;79.90
32600;DHT22;19277;51.778;7.912;2023-08-08T11:40:23;22.50;80.60
32600;DHT22;19277;51.778;7.912;2023-08-08T11:42:51;22.60;78.30
32600;DHT22;19277;51.778;7.912;2023-08-08T11:45:17;22.60;76.70
32600;DHT22;19277;51.778;7.912;2023-08-08T11:47:44;22.60;79.00
32600;DHT22;19277;51.778;7.912;2023-08-08T11:50:13;22.60;78.70
32600;DHT22;19277;51.778;7.912;2023-08-08T11:52:43;22.70;79.90
32600;DHT22;19277;51.778;7.912;2023-08-08T11:55:11;22.70;76.10
32600;DHT22;19277;51.778;7.912;2023-08-08T11:57:37;22.60;79.20
32600;DHT22;19277;51.778;7.912;2023-08-08T12:00:06;22.60;79.70
32600;DHT22;19277;51.778;7.912;2023-08-08T12:02:33;22.60;79.40
32600;DHT22;19277;51.778;7.912;2023-08-08T12:05:09;22.60;80.60
32600;DHT22;19277;51.778;7.912;2023-08-08T12:07:37;22.70;78.40
32600;DHT22;19277;51.778;7.912;2023-08-08T12:10:05;22.60;78.20
32600;DHT22;19277;51.778;7.912;2023-08-08T12:12:32;22.70;77.90
32600;DHT22;19277;51.778;7.912;2023-08-08T12:15:06;22.70;79.40
32600;DHT22;19277;51.778;7.912;2023-08-08T12:17:32;22.60;80.00
32600;DHT22;19277;51.778;7.912;2023-08-08T12:20:03;22.60;80.80
32600;DHT22;19277;51.778;7.912;2023-08-08T12:22:29;22.60;79.90
32600;DHT22;19277;51.778;7.912;2023-08-08T12:24:54;22.70;80.70
32600;DHT22;19277;51.778;7.912;2023-08-08T12:27:20;22.70;80.10
32600;DHT22;19277;51.778;7.912;2023-08-08T12:29:46;22.70;80.20
32600;DHT22;19277;51.778;7.912;2023-08-08T12:32:11;22.70;80.20
32600;DHT22;19277;51.778;7.912;2023-08-08T12:34:37;22.70;80.70
32600;DHT22;19277;51.778;7.912;2023-08-08T12:37:02;22.70;80.70
32600;DHT22;19277;51.778;7.912;2023-08-08T12:39:29;22.70;80.50
32600;DHT22;19277;51.778;7.912;2023-08-08T12:41:55;22.70;79.20
32600;DHT22;19277;51.778;7.912;2023-08-08T12:44:20;22.70;79.30
32600;DHT22;19277;51.778;7.912;2023-08-08T12:46:46;22.70;78.80
32600;DHT22;19277;51.778;7.912;2023-08-08T12:49:11;22.80;77.80
32600;DHT22;19277;51.778;7.912;2023-08-08T12:51:37;22.80;79.00
32600;DHT22;19277;51.778;7.912;2023-08-08T12:54:03;22.70;80.50
32600;DHT22;19277;51.778;7.912;2023-08-08T12:56:28;22.80;79.30
32600;DHT22;19277;51.778;7.912;2023-08-08T12:58:54;22.80;80.30
32600;DHT22;19277;51.778;7.912;2023-08-08T13:01:19;22.80;80.00
32600;DHT22;19277;51.778;7.912;2023-08-08T13:03:45;22.80;79.10
32600;DHT22;19277;51.778;7.912;2023-08-08T13:06:10;22.80;77.40
32600;DHT22;19277;51.778;7.912;2023-08-08T13:08:37;22.80;78.70
32600;DHT22;19277;51.778;7.912;2023-08-08T13:11:03;22.80;79.10
32600;DHT22;19277;51.778;7.912;2023-08-08T13:13:29;22.80;78.40
32600;DHT22;19277;51.778;7.912;2023-08-08T13:15:54;22.80;78.60
32600;DHT22;19277;51.778;7.912;2023-08-08T13:18:20;22.80;80.10
32600;DHT22;19277;51.778;7.912;2023-08-08T13:20:45;22.90;80.80
32600;DHT22;19277;51.778;7.912;2023-08-08T13:23:11;22.90;80.50
32600;DHT22;19277;51.778;7.912;2023-08-08T13:25:37;22.90;80.30
32600;DHT22;19277;51.778;7.912;2023-08-08T13:28:02;22.90;80.30
32600;DHT22;19277;51.778;7.912;2023-08-08T13:30:29;22.90;81.00
32600;DHT22;19277;51.778;7.912;2023-08-08T13:32:55;22.90;80.40
32600;DHT22;19277;51.778;7.912;2023-08-08T13:35:20;22.90;80.80
32600;DHT22;19277;51.778;7.912;2023-08-08T13:37:46;22.90;80.50
32600;DHT22;19277;51.778;7.912;2023-08-08T13:40:16;22.90;79.10
32600;DHT22;19277;51.778;7.912;2023-08-08T13:42:44;23.00;80.20
32600;DHT22;19277;51.778;7.912;2023-08-08T13:45:14;23.00;80.00
32600;DHT22;19277;51.778;7.912;2023-08-08T13:47:39;23.00;79.80
32600;DHT22;19277;51.778;7.912;2023-08-08T13:50:06;23.00;80.20
32600;DHT22;19277;51.778;7.912;2023-08-08T13:52:31;23.00;80.50
32600;DHT22;19277;51.778;7.912;2023-08-08T13:54:58;23.00;80.00
32600;DHT22;19277;51.778;7.912;2023-08-08T13:57:24;23.00;80.70
32600;DHT22;19277;51.778;7.912;2023-08-08T13:59:50;23.00;80.20
32600;DHT22;19277;51.778;7.912;2023-08-08T14:02:15;23.10;80.00
32600;DHT22;19277;51.778;7.912;2023-08-08T14:04:44;23.00;80.70
32600;DHT22;19277;51.778;7.912;2023-08-08T14:07:09;23.00;80.20
32600;DHT22;19277;51.778;7.912;2023-08-08T14:09:35;23.00;80.00
32600;DHT22;19277;51.778;7.912;2023-08-08T14:12:01;23.10;79.40
32600;DHT22;19277;51.778;7.912;2023-08-08T14:14:26;23.10;80.20
32600;DHT22;19277;51.778;7.912;2023-08-08T14:16:52;23.10;80.40
32600;DHT22;19277;51.778;7.912;2023-08-08T14:19:17;23.10;79.40
32600;DHT22;19277;51.778;7.912;2023-08-08T14:21:43;23.10;78.40
32600;DHT22;19277;51.778;7.912;2023-08-08T14:24:08;23.10;80.10
32600;DHT22;19277;51.778;7.912;2023-08-08T14:26:34;23.20;80.50
32600;DHT22;19277;51.778;7.912;2023-08-08T14:28:59;23.10;80.10
32600;DHT22;19277;51.778;7.912;2023-08-08T14:31:25;23.20;80.00
32600;DHT22;19277;51.778;7.912;2023-08-08T14:33:51;23.10;79.70
32600;DHT22;19277;51.778;7.912;2023-08-08T14:36:16;23.10;79.50
32600;DHT22;19277;51.778;7.912;2023-08-08T14:38:42;23.10;78.90
32600;DHT22;19277;51.778;7.912;2023-08-08T14:41:07;23.10;78.80
32600;DHT22;19277;51.778;7.912;2023-08-08T14:43:33;23.10;79.30
32600;DHT22;19277;51.778;7.912;2023-08-08T14:45:59;23.20;78.80
32600;DHT22;19277;51.778;7.912;2023-08-08T14:48:25;23.20;78.90
32600;DHT22;19277;51.778;7.912;2023-08-08T14:50:50;23.20;79.80
32600;DHT22;19277;51.778;7.912;2023-08-08T14:53:16;23.20;78.30
32600;DHT22;19277;51.778;7.912;2023-08-08T14:55:41;23.20;80.40
32600;DHT22;19277;51.778;7.912;2023-08-08T14:58:07;23.20;79.70
32600;DHT22;19277;51.778;7.912;2023-08-08T15:00:33;23.20;80.30
32600;DHT22;19277;51.778;7.912;2023-08-08T15:02:58;23.20;79.50
32600;DHT22;19277;51.778;7.912;2023-08-08T15:05:24;23.20;79.20
32600;DHT22;19277;51.778;7.912;2023-08-08T15:07:49;23.20;78.80
32600;DHT22;19277;51.778;7.912;2023-08-08T15:10:15;23.20;80.00
32600;DHT22;19277;51.778;7.912;2023-08-08T15:12:40;23.20;79.40
32600;DHT22;19277;51.778;7.912;2023-08-08T15:15:06;23.30;79.80
32600;DHT22;19277;51.778;7.912;2023-08-08T15:17:33;23.20;78.90
32600;DHT22;19277;51.778;7.912;2023-08-08T15:20:00;23.30;79.20
32600;DHT22;19277;51.778;7.912;2023-08-08T15:22:26;23.20;79.10
32600;DHT22;19277;51.778;7.912;2023-08-08T15:24:51;23.30;78.70